Time;durP1;ratioP1;P1;durP2;ratioP2;P2;SDS_P1;SDS_P2;PMS_P1;PMS_P2;Temp;Humidity;BMP_temperature;BMP_pressure;BME280_temperature;BME280_humidity;BME280_pressure;Samples;Min_cycle;Max_cycle;Signal;HPM_P1;HPM_P2
2021/07/21 00:00:10;;;;;;;;;;;27.10;52.90;;;;;;5068459;28;20346;-62
2021/07/21 00:02:35;;;;;;;;;;;27.10;52.90;;;;;;5096044;28;19923;-63
2021/07/21 00:05:03;;;;;;;;;;;27.00;52.80;;;;;;5090181;28;19916;-61
2021/07/21 00:07:29;;;;;;;;;;;27.10;52.80;;;;;;5089242;28;19943;-62
2021/07/21 00:09:54;;;;;;;;;;;27.10;52.80;;;;;;5076776;28;20009;-62
2021/07/21 00:15:06;;;;;;;;;;;27.00;52.70;;;;;;5093083;28;19919;-62
2021/07/21 00:17:34;;;;;;;;;;;27.00;52.70;;;;;;5089030;28;19919;-61
2021/07/21 00:20:06;;;;;;;;;;;27.00;52.70;;;;;;5084530;28;20300;-61
2021/07/21 00:22:50;;;;;;;;;;;27.00;52.70;;;;;;5082777;28;19908;-62
2021/07/21 00:25:16;;;;;;;;;;;27.00;52.80;;;;;;5091945;28;19950;-64
2021/07/21 00:27:42;;;;;;;;;;;27.00;52.70;;;;;;5086617;28;19919;-63
2021/07/21 00:30:09;;;;;;;;;;;27.00;52.70;;;;;;5071554;28;19916;-62
2021/07/21 00:32:34;;;;;;;;;;;27.00;52.70;;;;;;5068445;28;20054;-62
2021/07/21 00:35:00;;;;;;;;;;;27.00;52.70;;;;;;5092556;28;19999;-62
2021/07/21 00:37:25;;;;;;;;;;;27.00;52.70;;;;;;5088728;28;20013;-63
2021/07/21 00:39:51;;;;;;;;;;;27.00;52.70;;;;;;5088894;28;19912;-62
2021/07/21 00:42:16;;;;;;;;;;;27.00;52.70;;;;;;5087703;28;19935;-64
2021/07/21 00:44:42;;;;;;;;;;;27.00;52.70;;;;;;5077343;28;19908;-63
2021/07/21 00:47:08;;;;;;;;;;;26.90;52.70;;;;;;5086991;28;20124;-62
2021/07/21 00:49:34;;;;;;;;;;;26.90;52.70;;;;;;5089152;28;20374;-61
2021/07/21 00:52:03;;;;;;;;;;;26.90;52.60;;;;;;5089193;28;19919;-62
2021/07/21 00:54:30;;;;;;;;;;;26.90;52.70;;;;;;5088129;28;19916;-62
2021/07/21 00:56:56;;;;;;;;;;;26.90;52.60;;;;;;5087531;28;19985;-61
2021/07/21 00:59:22;;;;;;;;;;;26.90;52.60;;;;;;5087346;28;19912;-64
2021/07/21 01:01:48;;;;;;;;;;;26.90;52.70;;;;;;5067580;28;19923;-62
2021/07/21 01:04:13;;;;;;;;;;;26.90;52.60;;;;;;5090299;28;19907;-64
2021/07/21 01:06:39;;;;;;;;;;;26.90;52.70;;;;;;5083319;28;19908;-65
2021/07/21 01:09:05;;;;;;;;;;;26.90;52.70;;;;;;5076812;28;20357;-63
2021/07/21 01:11:37;;;;;;;;;;;26.90;52.70;;;;;;5085730;28;20110;-62
2021/07/21 01:14:15;;;;;;;;;;;26.90;52.60;;;;;;5081270;28;19958;-63
2021/07/21 01:16:43;;;;;;;;;;;26.80;52.60;;;;;;5083591;28;19912;-64
2021/07/21 01:19:10;;;;;;;;;;;26.90;52.60;;;;;;5067020;28;19988;-63
2021/07/21 01:21:38;;;;;;;;;;;26.80;52.60;;;;;;5085557;28;19912;-62
2021/07/21 01:24:13;;;;;;;;;;;26.80;52.60;;;;;;5075324;28;19916;-63
2021/07/21 01:26:42;;;;;;;;;;;26.80;52.60;;;;;;5089639;28;19930;-63
2021/07/21 01:29:08;;;;;;;;;;;26.80;52.60;;;;;;5083880;28;19908;-63
2021/07/21 01:31:36;;;;;;;;;;;26.80;52.60;;;;;;5084571;28;19920;-64
2021/07/21 01:34:02;;;;;;;;;;;26.80;52.60;;;;;;5087695;28;19904;-62
2021/07/21 01:36:29;;;;;;;;;;;26.80;52.60;;;;;;5083696;28;19912;-61
2021/07/21 01:38:57;;;;;;;;;;;26.80;52.60;;;;;;5080403;28;19996;-62
2021/07/21 01:41:30;;;;;;;;;;;26.80;52.60;;;;;;5080615;28;20062;-62
2021/07/21 01:44:00;;;;;;;;;;;26.80;52.60;;;;;;5081854;28;19995;-64
2021/07/21 01:46:27;;;;;;;;;;;26.80;52.60;;;;;;5083061;28;19989;-63
2021/07/21 01:48:54;;;;;;;;;;;26.70;52.60;;;;;;5080372;28;19908;-63
2021/07/21 01:51:22;;;;;;;;;;;26.70;52.60;;;;;;5085577;28;19939;-63
2021/07/21 01:53:48;;;;;;;;;;;26.70;52.60;;;;;;5087205;28;20042;-61
2021/07/21 01:56:14;;;;;;;;;;;26.70;52.60;;;;;;5078463;28;19912;-62
2021/07/21 01:58:40;;;;;;;;;;;26.70;52.60;;;;;;5080150;28;19919;-63
2021/07/21 02:01:06;;;;;;;;;;;26.70;52.60;;;;;;5089567;28;20359;-63
2021/07/21 02:03:33;;;;;;;;;;;26.70;52.60;;;;;;5080499;28;20342;-61
2021/07/21 02:06:01;;;;;;;;;;;26.70;52.60;;;;;;5079697;28;19916;-64
2021/07/21 02:08:27;;;;;;;;;;;26.70;52.60;;;;;;5070548;28;20449;-64
2021/07/21 02:10:56;;;;;;;;;;;26.70;52.60;;;;;;5079084;28;19912;-65
2021/07/21 02:13:24;;;;;;;;;;;26.70;52.70;;;;;;5081706;28;19912;-63
2021/07/21 02:15:49;;;;;;;;;;;26.70;52.70;;;;;;5085110;28;19915;-63
2021/07/21 02:18:16;;;;;;;;;;;26.70;52.60;;;;;;5086165;28;19911;-63
2021/07/21 02:20:43;;;;;;;;;;;26.70;52.70;;;;;;5081863;28;20223;-62
2021/07/21 02:23:08;;;;;;;;;;;26.70;52.70;;;;;;5083928;28;19951;-62
2021/07/21 02:25:34;;;;;;;;;;;26.60;52.60;;;;;;5081621;28;20004;-61
2021/07/21 02:28:00;;;;;;;;;;;26.60;52.60;;;;;;5077215;28;20267;-65
2021/07/21 02:30:26;;;;;;;;;;;26.60;52.60;;;;;;5081980;28;20247;-63
2021/07/21 02:32:58;;;;;;;;;;;26.60;52.70;;;;;;5080751;28;19927;-62
2021/07/21 02:35:23;;;;;;;;;;;26.60;52.60;;;;;;5082937;28;20015;-63
2021/07/21 02:37:49;;;;;;;;;;;26.60;52.60;;;;;;5084918;28;19932;-62
2021/07/21 02:40:16;;;;;;;;;;;26.60;52.60;;;;;;5078529;28;20042;-63
2021/07/21 02:42:42;;;;;;;;;;;26.60;52.60;;;;;;5082991;28;19911;-65
2021/07/21 02:45:07;;;;;;;;;;;26.60;52.70;;;;;;5087351;28;20236;-62
2021/07/21 02:47:33;;;;;;;;;;;26.60;52.70;;;;;;5084621;28;19912;-63
2021/07/21 02:49:59;;;;;;;;;;;26.60;52.70;;;;;;5083302;28;20002;-62
2021/07/21 02:52:28;;;;;;;;;;;26.50;52.60;;;;;;5085654;28;20024;-61
2021/07/21 02:55:14;;;;;;;;;;;26.60;52.70;;;;;;5079315;28;19909;-66
2021/07/21 02:58:09;;;;;;;;;;;26.50;52.60;;;;;;5077941;28;19912;-62
2021/07/21 03:00:35;;;;;;;;;;;26.50;52.60;;;;;;5052021;28;20239;-64
2021/07/21 03:03:01;;;;;;;;;;;26.50;52.60;;;;;;5075522;28;20088;-62
2021/07/21 03:05:29;;;;;;;;;;;26.50;52.60;;;;;;5082443;28;19924;-62
2021/07/21 03:07:56;;;;;;;;;;;26.50;52.60;;;;;;5081733;28;19927;-65
2021/07/21 03:10:21;;;;;;;;;;;26.50;52.60;;;;;;5065027;28;20052;-61
2021/07/21 03:12:51;;;;;;;;;;;26.50;52.70;;;;;;5089295;28;20433;-62
2021/07/21 03:15:16;;;;;;;;;;;26.50;52.70;;;;;;5100100;28;19918;-62
2021/07/21 03:17:46;;;;;;;;;;;26.50;52.70;;;;;;5085352;28;19908;-63
2021/07/21 03:20:13;;;;;;;;;;;26.50;52.70;;;;;;5081773;28;19912;-64
2021/07/21 03:22:39;;;;;;;;;;;26.50;52.70;;;;;;5084440;28;19908;-63
2021/07/21 03:25:06;;;;;;;;;;;26.40;52.60;;;;;;5087970;28;19931;-63
2021/07/21 03:27:33;;;;;;;;;;;26.40;52.60;;;;;;5081324;28;19912;-63
2021/07/21 03:29:59;;;;;;;;;;;26.40;52.60;;;;;;5080440;28;20361;-63
2021/07/21 03:32:27;;;;;;;;;;;26.50;52.60;;;;;;5079709;28;20006;-63
2021/07/21 03:34:53;;;;;;;;;;;26.40;52.60;;;;;;5089740;28;20003;-65
2021/07/21 03:37:20;;;;;;;;;;;26.50;52.60;;;;;;5089497;28;19908;-62
2021/07/21 03:39:50;;;;;;;;;;;26.40;52.60;;;;;;5090829;28;19919;-61
2021/07/21 03:42:16;;;;;;;;;;;26.40;52.60;;;;;;5093467;28;19966;-61
2021/07/21 03:44:42;;;;;;;;;;;26.40;52.60;;;;;;5082463;28;20123;-62
2021/07/21 03:47:07;;;;;;;;;;;26.40;52.60;;;;;;5083580;28;20651;-63
2021/07/21 03:49:33;;;;;;;;;;;26.40;52.50;;;;;;5084295;28;20270;-63
2021/07/21 03:51:59;;;;;;;;;;;26.40;50.30;;;;;;5083849;28;19912;-63
2021/07/21 03:54:25;;;;;;;;;;;26.30;47.70;;;;;;5083152;28;19919;-61
2021/07/21 03:56:51;;;;;;;;;;;26.20;45.20;;;;;;5086700;28;19911;-64
2021/07/21 03:59:19;;;;;;;;;;;26.10;44.60;;;;;;5094293;28;19918;-63
2021/07/21 04:01:45;;;;;;;;;;;25.90;44.80;;;;;;5085341;28;19912;-66
2021/07/21 04:04:14;;;;;;;;;;;25.90;44.60;;;;;;5086618;28;19922;-62
2021/07/21 04:06:40;;;;;;;;;;;25.80;44.40;;;;;;5088057;28;19914;-61
2021/07/21 04:09:07;;;;;;;;;;;25.70;44.00;;;;;;5080299;28;19965;-61
2021/07/21 04:11:33;;;;;;;;;;;25.70;44.70;;;;;;5083461;28;19942;-62
2021/07/21 04:14:00;;;;;;;;;;;25.70;44.70;;;;;;5080981;28;20011;-61
2021/07/21 04:16:26;;;;;;;;;;;25.60;44.00;;;;;;5088291;28;19908;-64
2021/07/21 04:18:51;;;;;;;;;;;25.50;44.10;;;;;;5094750;28;20120;-65
2021/07/21 04:21:17;;;;;;;;;;;25.50;44.80;;;;;;5081940;28;20027;-63
2021/07/21 04:23:43;;;;;;;;;;;25.50;45.20;;;;;;5089925;28;20014;-62
2021/07/21 04:26:10;;;;;;;;;;;25.40;45.10;;;;;;5086837;28;19918;-65
2021/07/21 04:28:37;;;;;;;;;;;25.40;45.30;;;;;;5087828;28;19912;-61
2021/07/21 04:31:03;;;;;;;;;;;25.40;45.40;;;;;;5072054;28;19955;-62
2021/07/21 04:33:29;;;;;;;;;;;25.40;45.30;;;;;;5061182;28;19907;-61
2021/07/21 04:35:54;;;;;;;;;;;25.40;45.50;;;;;;5078031;28;20293;-64
2021/07/21 04:38:20;;;;;;;;;;;25.40;45.20;;;;;;5068983;28;19908;-61
2021/07/21 04:40:46;;;;;;;;;;;25.30;45.00;;;;;;5063841;28;19939;-61
2021/07/21 04:43:12;;;;;;;;;;;25.20;45.20;;;;;;5067355;28;19957;-62
2021/07/21 04:45:40;;;;;;;;;;;25.20;44.80;;;;;;5061079;28;19965;-62
2021/07/21 04:48:06;;;;;;;;;;;25.10;45.20;;;;;;5047877;28;19913;-61
2021/07/21 04:50:31;;;;;;;;;;;25.10;45.60;;;;;;5067842;28;19919;-64
2021/07/21 04:52:57;;;;;;;;;;;25.10;45.50;;;;;;5075420;28;19919;-62
2021/07/21 04:55:22;;;;;;;;;;;25.10;45.50;;;;;;5065397;28;20378;-61
2021/07/21 04:57:49;;;;;;;;;;;25.10;45.50;;;;;;5061142;28;20772;-63
2021/07/21 05:00:15;;;;;;;;;;;25.20;45.30;;;;;;5059080;28;20463;-63
2021/07/21 05:02:41;;;;;;;;;;;25.10;45.20;;;;;;5065707;28;20334;-64
2021/07/21 05:05:07;;;;;;;;;;;25.10;45.50;;;;;;5069675;28;19916;-66
2021/07/21 05:07:32;;;;;;;;;;;25.10;45.70;;;;;;5056071;28;19913;-61
2021/07/21 05:09:57;;;;;;;;;;;25.10;45.70;;;;;;5062391;28;19915;-61
2021/07/21 05:12:23;;;;;;;;;;;25.00;46.10;;;;;;5068172;28;20311;-61
2021/07/21 05:14:48;;;;;;;;;;;24.90;46.10;;;;;;5068307;28;19991;-61
2021/07/21 05:17:14;;;;;;;;;;;24.80;46.50;;;;;;5065325;28;19912;-67
2021/07/21 05:19:39;;;;;;;;;;;24.70;46.90;;;;;;5065035;28;20012;-63
2021/07/21 05:22:05;;;;;;;;;;;24.60;47.00;;;;;;5065674;28;20535;-61
2021/07/21 05:24:31;;;;;;;;;;;24.60;47.10;;;;;;5071330;28;19947;-63
2021/07/21 05:26:56;;;;;;;;;;;24.50;46.90;;;;;;5061683;28;20019;-63
2021/07/21 05:29:22;;;;;;;;;;;24.50;47.20;;;;;;5058127;28;20391;-65
2021/07/21 05:31:47;;;;;;;;;;;24.40;47.70;;;;;;5062828;28;19935;-63
2021/07/21 05:34:13;;;;;;;;;;;24.30;47.80;;;;;;5078527;28;19931;-62
2021/07/21 05:36:39;;;;;;;;;;;24.30;47.90;;;;;;5064101;28;20213;-64
2021/07/21 05:39:05;;;;;;;;;;;24.20;47.50;;;;;;5048011;28;20003;-62
2021/07/21 05:41:30;;;;;;;;;;;24.20;47.90;;;;;;5065547;28;20030;-62
2021/07/21 05:43:56;;;;;;;;;;;24.20;48.00;;;;;;5049434;28;20395;-61
2021/07/21 05:46:21;;;;;;;;;;;24.20;48.20;;;;;;5065547;28;19912;-64
2021/07/21 05:48:47;;;;;;;;;;;24.20;48.30;;;;;;5066286;28;20379;-63
2021/07/21 05:51:12;;;;;;;;;;;24.20;48.70;;;;;;5066801;28;20002;-63
2021/07/21 05:53:38;;;;;;;;;;;24.20;48.90;;;;;;5067715;28;20267;-60
2021/07/21 05:56:05;;;;;;;;;;;24.20;49.00;;;;;;5066329;28;19919;-60
2021/07/21 05:58:30;;;;;;;;;;;24.20;49.00;;;;;;5064706;28;20375;-66
2021/07/21 06:00:56;;;;;;;;;;;24.20;49.20;;;;;;5061650;28;19943;-62
2021/07/21 06:03:24;;;;;;;;;;;24.20;49.20;;;;;;5066391;28;19916;-62
2021/07/21 06:05:49;;;;;;;;;;;24.30;49.20;;;;;;5066756;28;19909;-63
2021/07/21 06:08:15;;;;;;;;;;;24.30;49.10;;;;;;5066316;28;19915;-62
2021/07/21 06:10:41;;;;;;;;;;;24.40;49.20;;;;;;5064635;28;19909;-62
2021/07/21 06:13:06;;;;;;;;;;;24.40;49.30;;;;;;5065056;28;19928;-62
2021/07/21 06:15:32;;;;;;;;;;;24.40;49.50;;;;;;5064958;28;19915;-65
2021/07/21 06:17:57;;;;;;;;;;;24.40;49.40;;;;;;5044943;28;19956;-64
2021/07/21 06:20:23;;;;;;;;;;;24.40;49.60;;;;;;5066206;28;20013;-61
2021/07/21 06:22:49;;;;;;;;;;;24.40;49.50;;;;;;5067122;28;19908;-61
2021/07/21 06:25:23;;;;;;;;;;;24.40;49.20;;;;;;5065902;28;19961;-60
2021/07/21 06:27:50;;;;;;;;;;;24.50;48.90;;;;;;5059525;28;20294;-60
2021/07/21 06:30:16;;;;;;;;;;;24.40;48.80;;;;;;5064830;28;20266;-62
2021/07/21 06:32:42;;;;;;;;;;;24.30;48.90;;;;;;5064083;28;19912;-60
2021/07/21 06:35:08;;;;;;;;;;;24.30;49.00;;;;;;5063811;28;19913;-60
2021/07/21 06:37:34;;;;;;;;;;;24.40;48.90;;;;;;5067792;28;19931;-63
2021/07/21 06:40:00;;;;;;;;;;;24.30;48.60;;;;;;5064850;28;19912;-62
2021/07/21 06:42:25;;;;;;;;;;;24.30;48.80;;;;;;5060256;28;20357;-60
2021/07/21 06:44:51;;;;;;;;;;;24.30;48.70;;;;;;5053776;28;20271;-60
2021/07/21 06:47:17;;;;;;;;;;;24.40;48.60;;;;;;5065217;28;19916;-63
2021/07/21 06:49:42;;;;;;;;;;;24.40;48.50;;;;;;5046338;28;20311;-60
2021/07/21 06:52:08;;;;;;;;;;;24.40;48.50;;;;;;5062140;28;20319;-61
2021/07/21 06:54:33;;;;;;;;;;;24.40;48.50;;;;;;5065139;28;20209;-62
2021/07/21 06:56:59;;;;;;;;;;;24.50;48.70;;;;;;5046917;28;19909;-59
2021/07/21 06:59:28;;;;;;;;;;;24.50;48.50;;;;;;5059820;28;20006;-61
2021/07/21 07:01:53;;;;;;;;;;;24.50;48.70;;;;;;5060612;28;19924;-64
2021/07/21 07:04:19;;;;;;;;;;;24.60;48.80;;;;;;5062943;28;20000;-61
2021/07/21 07:06:45;;;;;;;;;;;24.60;48.60;;;;;;5058015;28;19999;-59
2021/07/21 07:09:10;;;;;;;;;;;24.70;48.50;;;;;;5064955;28;19919;-61
2021/07/21 07:11:36;;;;;;;;;;;24.70;48.40;;;;;;5069107;28;20007;-60
2021/07/21 07:14:02;;;;;;;;;;;24.70;48.40;;;;;;5059154;28;19920;-59
2021/07/21 07:16:27;;;;;;;;;;;24.70;48.50;;;;;;5070286;28;20268;-59
2021/07/21 07:18:52;;;;;;;;;;;24.80;48.60;;;;;;5069515;28;19993;-59
2021/07/21 07:21:18;;;;;;;;;;;24.80;48.60;;;;;;5069025;28;19913;-59
2021/07/21 07:23:45;;;;;;;;;;;24.90;48.60;;;;;;5069509;28;19992;-63
2021/07/21 07:26:10;;;;;;;;;;;24.90;48.70;;;;;;5067873;28;19986;-61
2021/07/21 07:28:36;;;;;;;;;;;24.90;48.60;;;;;;5065499;28;19947;-60
2021/07/21 07:31:01;;;;;;;;;;;24.90;48.60;;;;;;5087652;28;19916;-59
2021/07/21 07:33:27;;;;;;;;;;;25.00;48.80;;;;;;5089441;28;19976;-61
2021/07/21 07:35:52;;;;;;;;;;;25.00;48.60;;;;;;5089848;28;19970;-60
2021/07/21 07:38:18;;;;;;;;;;;25.10;48.70;;;;;;5088637;28;19989;-62
2021/07/21 07:40:44;;;;;;;;;;;25.10;48.70;;;;;;5093901;28;19914;-63
2021/07/21 07:43:10;;;;;;;;;;;25.10;48.50;;;;;;5096258;28;19914;-63
2021/07/21 07:45:36;;;;;;;;;;;25.10;48.60;;;;;;5098239;28;19933;-61
2021/07/21 07:48:01;;;;;;;;;;;25.10;48.60;;;;;;5089638;28;19912;-62
2021/07/21 07:50:27;;;;;;;;;;;25.20;48.60;;;;;;5089320;28;19916;-63
2021/07/21 07:52:52;;;;;;;;;;;25.20;48.80;;;;;;5090338;28;19965;-60
2021/07/21 07:55:18;;;;;;;;;;;25.20;48.80;;;;;;5086950;28;19916;-61
2021/07/21 07:57:43;;;;;;;;;;;25.30;49.00;;;;;;5088554;28;19912;-65
2021/07/21 08:00:09;;;;;;;;;;;25.30;49.10;;;;;;5089079;28;19912;-61
2021/07/21 08:02:35;;;;;;;;;;;25.30;49.10;;;;;;5087722;28;19907;-62
2021/07/21 08:05:01;;;;;;;;;;;25.40;49.10;;;;;;5086942;28;22314;-60
2021/07/21 08:07:32;;;;;;;;;;;25.40;49.10;;;;;;5092825;28;20065;-60
2021/07/21 08:09:57;;;;;;;;;;;25.40;49.00;;;;;;5089176;28;20350;-64
2021/07/21 08:12:23;;;;;;;;;;;25.40;49.00;;;;;;5089919;28;19915;-62
2021/07/21 08:14:49;;;;;;;;;;;25.50;49.00;;;;;;5091960;28;19908;-61
2021/07/21 08:17:14;;;;;;;;;;;25.50;49.00;;;;;;5089598;28;20350;-61
2021/07/21 08:19:40;;;;;;;;;;;25.50;49.00;;;;;;5087734;28;19912;-61
2021/07/21 08:22:05;;;;;;;;;;;25.50;49.00;;;;;;5092601;28;20373;-62
2021/07/21 08:24:31;;;;;;;;;;;25.60;49.00;;;;;;5088398;28;19907;-60
2021/07/21 08:26:57;;;;;;;;;;;25.60;49.00;;;;;;5087001;28;19973;-60
2021/07/21 08:29:22;;;;;;;;;;;25.60;49.00;;;;;;5088368;28;19924;-61
2021/07/21 08:31:49;;;;;;;;;;;25.70;49.10;;;;;;5089035;28;20354;-62
2021/07/21 08:34:15;;;;;;;;;;;25.70;49.10;;;;;;5070985;28;19912;-61
2021/07/21 08:36:41;;;;;;;;;;;25.70;49.10;;;;;;5091213;28;20266;-62
2021/07/21 08:39:09;;;;;;;;;;;25.70;49.10;;;;;;5088950;28;19918;-64
2021/07/21 08:41:36;;;;;;;;;;;25.70;49.10;;;;;;5088001;28;20297;-63
2021/07/21 08:44:02;;;;;;;;;;;25.70;49.10;;;;;;5088836;28;19904;-63
2021/07/21 08:46:27;;;;;;;;;;;25.70;49.10;;;;;;5087760;28;19916;-60
2021/07/21 08:48:53;;;;;;;;;;;25.80;49.10;;;;;;5085305;28;20349;-62
2021/07/21 08:51:22;;;;;;;;;;;25.80;49.10;;;;;;5096900;28;19912;-61
2021/07/21 08:53:49;;;;;;;;;;;25.80;49.10;;;;;;5104734;28;19938;-61
2021/07/21 08:56:16;;;;;;;;;;;25.80;49.10;;;;;;5085231;28;19932;-61
2021/07/21 08:58:44;;;;;;;;;;;25.90;49.10;;;;;;5087918;28;19930;-61
2021/07/21 09:01:10;;;;;;;;;;;25.90;49.10;;;;;;5086298;28;19989;-62
2021/07/21 09:03:35;;;;;;;;;;;25.90;49.10;;;;;;5088994;28;20340;-62
2021/07/21 09:06:01;;;;;;;;;;;25.90;49.10;;;;;;5088856;28;20038;-62
2021/07/21 09:08:30;;;;;;;;;;;25.90;49.10;;;;;;5089169;28;19927;-61
2021/07/21 09:10:55;;;;;;;;;;;26.00;49.20;;;;;;5099647;28;19987;-61
2021/07/21 09:13:22;;;;;;;;;;;26.00;49.10;;;;;;5089375;28;20621;-65
2021/07/21 09:15:48;;;;;;;;;;;26.00;49.20;;;;;;5099536;28;19916;-61
2021/07/21 09:18:17;;;;;;;;;;;26.00;49.20;;;;;;5101238;28;20294;-65
2021/07/21 09:20:43;;;;;;;;;;;26.00;49.10;;;;;;5096741;28;19912;-64
2021/07/21 09:23:09;;;;;;;;;;;26.10;49.20;;;;;;5104105;28;20004;-62
2021/07/21 09:25:36;;;;;;;;;;;26.10;49.20;;;;;;5098174;28;19908;-59
2021/07/21 09:28:04;;;;;;;;;;;26.10;49.20;;;;;;5103122;28;19916;-64
2021/07/21 09:30:31;;;;;;;;;;;26.10;49.20;;;;;;5092203;28;19916;-60
2021/07/21 09:33:03;;;;;;;;;;;26.20;49.30;;;;;;5086164;28;19915;-60
2021/07/21 09:35:36;;;;;;;;;;;26.20;49.20;;;;;;5085813;28;19914;-61
2021/07/21 09:38:13;;;;;;;;;;;26.20;49.20;;;;;;5101196;28;19934;-61
2021/07/21 09:40:41;;;;;;;;;;;26.20;49.80;;;;;;5108446;28;20295;-61
2021/07/21 09:43:17;;;;;;;;;;;26.20;49.30;;;;;;5089460;28;19915;-60
2021/07/21 09:45:43;;;;;;;;;;;26.20;49.30;;;;;;5073842;28;19912;-62
2021/07/21 09:48:09;;;;;;;;;;;26.20;49.30;;;;;;5093487;28;19918;-62
2021/07/21 09:50:38;;;;;;;;;;;26.20;49.30;;;;;;5087285;28;19952;-61
2021/07/21 09:53:07;;;;;;;;;;;26.20;49.30;;;;;;5084218;28;19916;-60
2021/07/21 09:55:34;;;;;;;;;;;26.20;49.20;;;;;;5085529;28;19916;-64
2021/07/21 09:58:02;;;;;;;;;;;26.20;49.30;;;;;;5085276;28;20002;-62
2021/07/21 10:00:37;;;;;;;;;;;26.20;49.20;;;;;;5080935;28;19916;-62
2021/07/21 10:03:12;;;;;;;;;;;26.20;49.20;;;;;;5079925;28;19926;-61
2021/07/21 10:05:49;;;;;;;;;;;26.20;49.80;;;;;;5087691;28;19945;-60
2021/07/21 10:08:24;;;;;;;;;;;26.20;49.80;;;;;;5087548;28;19908;-61
2021/07/21 10:10:50;;;;;;;;;;;26.20;49.30;;;;;;5083499;28;20294;-62
2021/07/21 10:13:15;;;;;;;;;;;26.20;49.30;;;;;;5085259;28;19912;-61
2021/07/21 10:15:41;;;;;;;;;;;26.20;49.30;;;;;;5086796;28;20299;-61
2021/07/21 10:18:11;;;;;;;;;;;26.20;49.30;;;;;;5078742;28;20010;-61
2021/07/21 10:20:37;;;;;;;;;;;26.20;49.40;;;;;;5069462;28;20665;-62
2021/07/21 10:23:03;;;;;;;;;;;26.20;49.40;;;;;;5086332;28;19916;-62
2021/07/21 10:25:30;;;;;;;;;;;26.20;49.60;;;;;;5087620;28;19929;-63
2021/07/21 10:27:57;;;;;;;;;;;26.20;49.60;;;;;;5086071;28;20053;-61
2021/07/21 10:30:24;;;;;;;;;;;26.30;49.60;;;;;;5087139;28;19912;-61
2021/07/21 10:32:50;;;;;;;;;;;26.30;49.50;;;;;;5091115;28;19938;-62
2021/07/21 10:35:16;;;;;;;;;;;26.30;49.50;;;;;;5081339;28;19912;-62
2021/07/21 10:37:42;;;;;;;;;;;26.30;49.50;;;;;;5089819;28;19936;-61
2021/07/21 10:40:07;;;;;;;;;;;26.30;49.60;;;;;;5081632;28;20006;-63
2021/07/21 10:42:33;;;;;;;;;;;26.40;49.60;;;;;;5096207;28;19972;-64
2021/07/21 10:45:14;;;;;;;;;;;26.30;49.50;;;;;;5094200;28;19908;-61
2021/07/21 10:47:44;;;;;;;;;;;26.40;49.60;;;;;;5091667;28;19908;-61
2021/07/21 10:50:37;;;;;;;;;;;26.40;49.50;;;;;;5089811;28;19916;-61
2021/07/21 10:53:21;;;;;;;;;;;26.40;49.70;;;;;;5091503;28;19966;-62
2021/07/21 11:01:26;;;;;;;;;;;26.50;50.00;;;;;;5089116;28;20354;-61
2021/07/21 11:04:11;;;;;;;;;;;26.60;50.20;;;;;;5089451;28;19951;-61
2021/07/21 11:06:42;;;;;;;;;;;26.60;49.90;;;;;;5092413;28;19922;-63
2021/07/21 11:09:18;;;;;;;;;;;26.60;49.70;;;;;;5091046;28;19938;-62
2021/07/21 11:11:45;;;;;;;;;;;26.60;49.60;;;;;;5088131;28;19916;-61
2021/07/21 11:14:15;;;;;;;;;;;26.60;49.60;;;;;;5086451;28;20002;-62
2021/07/21 11:16:41;;;;;;;;;;;26.60;49.60;;;;;;5092116;28;19908;-61
2021/07/21 11:19:42;;;;;;;;;;;26.70;49.70;;;;;;5087839;28;20091;-61
2021/07/21 11:22:23;;;;;;;;;;;26.70;49.70;;;;;;5023060;28;20532;-64
2021/07/21 11:25:08;;;;;;;;;;;26.70;49.70;;;;;;5088063;28;19916;-60
2021/07/21 11:27:36;;;;;;;;;;;26.70;49.70;;;;;;5091285;28;19999;-64
2021/07/21 11:30:02;;;;;;;;;;;26.70;49.70;;;;;;5076218;28;19915;-64
2021/07/21 11:32:29;;;;;;;;;;;26.70;49.70;;;;;;5095375;28;20290;-66
2021/07/21 11:34:55;;;;;;;;;;;26.70;49.70;;;;;;5087324;28;19981;-62
2021/07/21 11:37:32;;;;;;;;;;;26.70;49.80;;;;;;5096629;28;19979;-63
2021/07/21 11:39:58;;;;;;;;;;;26.80;49.80;;;;;;5091562;28;19915;-64
2021/07/21 11:42:25;;;;;;;;;;;26.80;49.80;;;;;;5074494;28;20019;-64
2021/07/21 11:44:52;;;;;;;;;;;26.80;49.90;;;;;;5093512;28;19908;-62
2021/07/21 11:47:20;;;;;;;;;;;26.80;49.90;;;;;;5092761;28;20298;-63
2021/07/21 11:49:49;;;;;;;;;;;26.80;49.90;;;;;;5087746;28;19908;-65
2021/07/21 11:52:16;;;;;;;;;;;26.90;49.90;;;;;;5092651;28;19912;-65
2021/07/21 11:54:42;;;;;;;;;;;26.90;49.90;;;;;;5092046;28;20368;-64
2021/07/21 11:57:09;;;;;;;;;;;26.90;49.90;;;;;;5088826;28;19923;-63
2021/07/21 11:59:37;;;;;;;;;;;26.90;50.40;;;;;;5095233;28;19908;-64
2021/07/21 12:02:10;;;;;;;;;;;26.90;50.00;;;;;;5101701;28;20432;-63
2021/07/21 12:04:43;;;;;;;;;;;27.00;50.00;;;;;;5088584;28;19995;-65
2021/07/21 12:07:10;;;;;;;;;;;26.90;50.00;;;;;;5089469;28;20358;-63
2021/07/21 12:09:45;;;;;;;;;;;27.00;50.00;;;;;;5073033;28;19908;-63
2021/07/21 12:12:12;;;;;;;;;;;27.00;50.10;;;;;;5086103;28;19923;-62
2021/07/21 12:14:39;;;;;;;;;;;27.00;50.10;;;;;;5086376;28;19920;-66
2021/07/21 12:17:10;;;;;;;;;;;27.00;50.20;;;;;;5087179;28;20700;-65
2021/07/21 12:19:36;;;;;;;;;;;27.00;50.10;;;;;;5084665;28;19946;-63
2021/07/21 12:22:04;;;;;;;;;;;27.00;50.00;;;;;;5072221;28;19908;-64
2021/07/21 12:24:31;;;;;;;;;;;27.00;50.00;;;;;;5081416;28;19974;-63
2021/07/21 12:26:57;;;;;;;;;;;27.10;50.10;;;;;;5087670;28;20338;-62
2021/07/21 12:29:26;;;;;;;;;;;27.10;50.00;;;;;;5106804;28;19912;-64
2021/07/21 12:32:11;;;;;;;;;;;27.10;50.00;;;;;;5085338;28;19999;-64
2021/07/21 12:34:37;;;;;;;;;;;27.10;50.00;;;;;;5084877;28;20380;-63
2021/07/21 12:37:05;;;;;;;;;;;27.10;50.00;;;;;;5069234;28;19907;-63
2021/07/21 12:39:31;;;;;;;;;;;27.10;50.00;;;;;;5076471;28;20017;-64
2021/07/21 12:42:06;;;;;;;;;;;27.10;50.00;;;;;;5067233;28;19957;-65
2021/07/21 12:44:36;;;;;;;;;;;27.10;50.00;;;;;;5081120;28;19949;-64
2021/07/21 12:47:21;;;;;;;;;;;27.10;49.90;;;;;;5068990;28;19972;-63
2021/07/21 12:49:47;;;;;;;;;;;27.20;50.00;;;;;;5075458;28;19908;-66
2021/07/21 12:52:15;;;;;;;;;;;27.20;50.00;;;;;;5088897;28;19924;-63
2021/07/21 12:54:46;;;;;;;;;;;27.20;50.00;;;;;;5082774;28;19908;-65
2021/07/21 12:57:11;;;;;;;;;;;27.20;50.00;;;;;;5085391;28;19951;-64
2021/07/21 12:59:37;;;;;;;;;;;27.20;50.00;;;;;;5067769;28;20354;-65
2021/07/21 13:02:12;;;;;;;;;;;27.20;50.00;;;;;;5088651;28;19999;-65
2021/07/21 13:04:38;;;;;;;;;;;27.30;50.10;;;;;;5072276;28;19913;-65
2021/07/21 13:07:07;;;;;;;;;;;27.30;50.10;;;;;;5084329;28;20271;-65
2021/07/21 13:09:36;;;;;;;;;;;27.30;50.10;;;;;;5077518;28;20371;-63
2021/07/21 13:12:02;;;;;;;;;;;27.30;50.20;;;;;;5092846;28;19955;-64
2021/07/21 13:14:27;;;;;;;;;;;27.30;50.10;;;;;;5093254;28;19919;-67
2021/07/21 13:16:53;;;;;;;;;;;27.30;50.00;;;;;;5088984;28;19912;-65
2021/07/21 13:19:18;;;;;;;;;;;27.30;50.00;;;;;;5088482;28;19915;-67
2021/07/21 13:21:46;;;;;;;;;;;27.30;50.00;;;;;;5066029;28;20015;-65
2021/07/21 13:24:12;;;;;;;;;;;27.40;50.10;;;;;;5085823;28;20411;-62
2021/07/21 13:26:38;;;;;;;;;;;27.40;50.10;;;;;;5097806;28;20647;-63
2021/07/21 13:29:05;;;;;;;;;;;27.40;50.10;;;;;;5079351;28;19916;-62
2021/07/21 13:31:33;;;;;;;;;;;27.40;50.00;;;;;;5086325;28;20018;-63
2021/07/21 13:33:59;;;;;;;;;;;27.40;50.50;;;;;;5085774;28;19912;-64
2021/07/21 13:36:26;;;;;;;;;;;27.40;50.00;;;;;;5082780;28;19914;-63
2021/07/21 13:38:53;;;;;;;;;;;27.40;50.00;;;;;;5095033;28;20346;-62
2021/07/21 13:41:29;;;;;;;;;;;27.40;50.00;;;;;;5086337;28;20019;-65
2021/07/21 13:43:59;;;;;;;;;;;27.40;50.00;;;;;;5079995;28;20087;-66
2021/07/21 13:46:28;;;;;;;;;;;27.50;50.10;;;;;;5060010;28;20401;-63
2021/07/21 13:48:55;;;;;;;;;;;27.50;50.00;;;;;;5075056;28;19912;-62
2021/07/21 13:51:26;;;;;;;;;;;27.50;50.00;;;;;;5086583;28;19923;-64
2021/07/21 13:53:52;;;;;;;;;;;27.50;50.00;;;;;;5080046;28;19916;-64
2021/07/21 13:56:17;;;;;;;;;;;27.50;50.00;;;;;;5087121;28;19932;-63
2021/07/21 13:58:43;;;;;;;;;;;27.50;50.10;;;;;;5089809;28;19912;-63
2021/07/21 14:01:08;;;;;;;;;;;27.50;50.20;;;;;;5087506;28;19920;-64
2021/07/21 14:03:34;;;;;;;;;;;27.60;50.00;;;;;;5087816;28;19919;-63
2021/07/21 14:05:59;;;;;;;;;;;27.60;50.00;;;;;;5071480;28;19908;-66
2021/07/21 14:08:25;;;;;;;;;;;27.60;49.90;;;;;;5087299;28;19916;-62
2021/07/21 14:10:50;;;;;;;;;;;27.60;49.90;;;;;;5061431;28;20003;-62
2021/07/21 14:13:16;;;;;;;;;;;27.60;49.80;;;;;;5071174;28;20007;-63
2021/07/21 14:15:41;;;;;;;;;;;27.60;49.90;;;;;;5086787;28;19998;-62
2021/07/21 14:18:07;;;;;;;;;;;27.60;49.90;;;;;;5099366;28;19926;-63
2021/07/21 14:20:32;;;;;;;;;;;27.70;50.10;;;;;;5091459;28;20104;-63
2021/07/21 14:22:58;;;;;;;;;;;27.70;50.10;;;;;;5085611;28;19939;-63
2021/07/21 14:25:24;;;;;;;;;;;27.70;50.10;;;;;;5095988;28;19916;-65